Time;durP1;ratioP1;P1;durP2;ratioP2;P2;SDS_P1;SDS_P2;PMS_P1;PMS_P2;Temp;Humidity;BMP_temperature;BMP_pressure;BME280_temperature;BME280_humidity;BME280_pressure;Samples;Min_cycle;Max_cycle;Signal;HPM_P1;HPM_P2
2022/07/12 00:00:08;;;;;;;5.07;2.70;;;;;;;15.19;73.58;97275.91;4968009;28;20054;-64
2022/07/12 00:02:35;;;;;;;2.63;2.30;;;;;;;15.26;73.40;97269.53;4972322;28;20059;-71
2022/07/12 00:05:02;;;;;;;2.70;2.47;;;;;;;15.25;72.94;97276.34;4971933;28;20126;-65
2022/07/12 00:07:29;;;;;;;7.82;3.97;;;;;;;15.04;73.96;97267.88;4972780;28;20102;-72
2022/07/12 00:09:56;;;;;;;4.28;3.05;;;;;;;14.95;74.17;97247.94;4970695;28;20128;-66
2022/07/12 00:12:23;;;;;;;5.13;3.08;;;;;;;14.68;74.73;97199.25;4958029;28;20059;-73
2022/07/12 00:14:50;;;;;;;3.45;2.72;;;;;;;14.92;74.62;97243.94;4970127;28;20054;-72
2022/07/12 00:17:17;;;;;;;4.00;2.47;;;;;;;14.57;74.24;97203.97;4974062;28;20084;-64
2022/07/12 00:19:44;;;;;;;4.43;2.83;;;;;;;14.58;74.05;97227.88;4951902;28;20062;-64
2022/07/12 00:22:11;;;;;;;4.72;3.50;;;;;;;14.52;75.99;97263.69;4973244;28;20518;-72
2022/07/12 00:24:37;;;;;;;4.13;2.65;;;;;;;13.95;75.18;97171.78;4960282;28;20055;-72
2022/07/12 00:27:04;;;;;;;4.47;2.80;;;;;;;14.20;75.38;97214.50;4958431;28;20062;-65
2022/07/12 00:29:31;;;;;;;4.30;3.22;;;;;;;14.15;76.07;97203.72;4949886;28;20062;-64
2022/07/12 00:31:57;;;;;;;5.53;2.85;;;;;;;13.29;74.84;97067.97;4976202;28;20069;-64
2022/07/12 00:34:24;;;;;;;3.03;2.83;;;;;;;14.29;76.77;97270.75;4952236;28;20094;-64
2022/07/12 00:36:51;;;;;;;3.63;2.75;;;;;;;14.11;77.73;97275.34;4976214;28;20169;-68
2022/07/12 00:39:18;;;;;;;5.47;2.72;;;;;;;14.09;77.56;97272.16;4945258;28;20059;-63
2022/07/12 00:41:48;;;;;;;7.50;3.03;;;;;;;13.98;77.92;97265.69;4958749;28;20062;-64
2022/07/12 00:44:16;;;;;;;2.83;2.63;;;;;;;13.98;76.58;97260.13;4966382;28;20069;-63
2022/07/12 00:46:45;;;;;;;2.67;2.40;;;;;;;13.58;76.39;97199.75;4975274;28;20058;-69
2022/07/12 00:49:15;;;;;;;3.28;2.97;;;;;;;13.90;78.72;97269.63;4968049;28;20059;-69
2022/07/12 00:51:45;;;;;;;4.55;2.80;;;;;;;13.77;79.75;97260.00;4956946;28;20082;-64
2022/07/12 00:54:20;;;;;;;3.05;2.60;;;;;;;13.65;79.63;97259.09;4969593;28;20578;-64
2022/07/12 00:56:56;;;;;;;3.25;2.88;;;;;;;13.61;78.97;97263.00;4974987;28;20086;-63
2022/07/12 00:59:22;;;;;;;3.05;2.40;;;;;;;13.60;78.59;97270.59;4966400;28;20069;-70
2022/07/12 01:01:49;;;;;;;2.55;2.35;;;;;;;13.57;78.61;97262.19;4957528;28;20055;-63
2022/07/12 01:04:18;;;;;;;3.80;2.95;;;;;;;12.76;78.90;97155.69;4967448;28;20062;-69
2022/07/12 01:06:45;;;;;;;4.05;2.70;;;;;;;13.34;78.53;97270.72;4956020;28;20069;-63
2022/07/12 01:09:12;;;;;;;2.90;2.35;;;;;;;13.27;78.92;97261.50;4968503;28;20058;-69
2022/07/12 01:11:42;;;;;;;2.67;2.47;;;;;;;13.26;79.90;97260.69;4973148;28;20169;-64
2022/07/12 01:14:11;;;;;;;2.53;2.33;;;;;;;13.35;79.34;97261.22;4969176;28;20073;-68
2022/07/12 01:16:38;;;;;;;5.57;2.67;;;;;;;12.94;78.13;97215.06;4973281;28;20073;-65
2022/07/12 01:19:23;;;;;;;2.97;2.63;;;;;;;12.33;79.50;97148.06;4968498;28;20055;-64
2022/07/12 01:21:53;;;;;;;2.88;2.67;;;;;;;13.10;78.93;97265.69;4974610;28;20333;-64
2022/07/12 01:24:20;;;;;;;4.50;2.15;;;;;;;13.19;79.36;97263.44;4966026;28;20055;-68
2022/07/12 01:43:01;;;;;;;3.53;2.95;;;;;;;12.33;83.22;97269.50;4927984;29;20087;-68
2022/07/12 01:45:31;;;;;;;3.40;2.85;;;;;;;12.37;82.96;97276.69;4931395;29;20064;-67
2022/07/12 01:47:58;;;;;;;4.55;3.25;;;;;;;12.41;82.32;97271.97;4961380;28;20173;-63
2022/07/12 01:50:46;;;;;;;4.00;2.95;;;;;;;11.73;83.29;97179.78;4992558;28;20116;-64
2022/07/12 01:53:16;;;;;;;3.50;2.72;;;;;;;12.34;83.97;97274.69;4988323;28;20054;-64
2022/07/12 01:55:43;;;;;;;3.65;3.15;;;;;;;11.76;83.73;97184.59;4985366;28;20065;-63
2022/07/12 01:58:13;;;;;;;3.90;2.97;;;;;;;12.47;83.32;97284.34;4985387;28;20059;-64
2022/07/12 02:00:40;;;;;;;4.13;3.15;;;;;;;12.45;83.78;97270.06;4967927;28;20070;-64
2022/07/12 02:03:07;;;;;;;5.25;3.25;;;;;;;12.57;84.37;97272.59;4969401;28;20054;-68
2022/07/12 02:05:43;;;;;;;4.15;2.70;;;;;;;12.28;82.32;97223.41;4989261;28;20054;-67
2022/07/12 02:08:10;;;;;;;5.13;2.88;;;;;;;12.25;81.21;97229.69;4989054;28;20536;-70
2022/07/12 02:10:42;;;;;;;3.25;2.53;;;;;;;12.33;81.47;97236.94;4996447;28;20505;-69
2022/07/12 02:13:10;;;;;;;7.17;3.00;;;;;;;12.59;80.75;97273.03;4991440;28;20062;-70
2022/07/12 02:15:39;;;;;;;3.13;2.53;;;;;;;12.63;80.23;97273.06;4996646;28;20309;-63
2022/07/12 02:18:06;;;;;;;3.15;2.58;;;;;;;12.62;80.24;97272.25;4991097;28;20141;-68
2022/07/12 02:20:37;;;;;;;3.53;2.40;;;;;;;12.34;79.73;97221.09;4996038;28;20150;-68
2022/07/12 02:23:04;;;;;;;3.70;2.45;;;;;;;12.55;79.80;97280.50;4991883;28;20089;-63
2022/07/12 02:25:37;;;;;;;3.17;2.47;;;;;;;12.14;80.66;97242.63;4996550;28;20546;-68
2022/07/12 02:28:04;;;;;;;2.90;2.50;;;;;;;12.41;81.65;97280.31;4991337;28;20093;-63
2022/07/12 02:30:32;;;;;;;5.07;2.42;;;;;;;12.40;81.13;97281.50;4994439;28;20122;-63
2022/07/12 02:32:59;;;;;;;5.47;2.65;;;;;;;12.37;81.94;97282.25;4997478;28;20098;-64
2022/07/12 02:35:26;;;;;;;2.30;2.10;;;;;;;12.35;80.93;97289.34;5005766;28;20157;-63
2022/07/12 02:37:56;;;;;;;3.92;2.83;;;;;;;12.18;80.89;97287.94;4991324;28;20050;-69
2022/07/12 02:43:08;;;;;;;3.20;2.90;;;;;;;12.18;82.14;97285.16;4990671;28;20069;-69
2022/07/12 02:45:35;;;;;;;4.53;3.20;;;;;;;12.25;81.57;97288.03;4995208;28;20116;-69
2022/07/12 02:48:03;;;;;;;3.53;3.22;;;;;;;11.94;81.97;97243.94;4991154;28;20062;-68
2022/07/12 02:50:30;;;;;;;4.68;3.50;;;;;;;12.28;81.65;97301.19;4995531;28;20061;-68
2022/07/12 02:52:57;;;;;;;4.22;3.83;;;;;;;12.30;81.35;97284.91;4990944;28;20061;-68
2022/07/12 02:55:24;;;;;;;3.30;3.00;;;;;;;12.33;80.79;97289.72;4994430;28;20058;-63
2022/07/12 04:29:04;;;;;;;4.07;3.60;;;;;;;14.33;72.27;97357.94;5009404;28;21149;-65
2022/07/12 04:31:41;;;;;;;5.43;3.67;;;;;;;13.89;72.12;97232.63;4995799;28;20108;-64
2022/07/12 04:34:20;;;;;;;6.70;3.65;;;;;;;14.65;72.29;97297.63;4985917;28;20081;-69
2022/07/12 04:37:24;;;;;;;4.18;3.17;;;;;;;14.67;71.32;97292.44;4987387;28;20069;-70
2022/07/12 04:40:25;;;;;;;5.57;3.50;;;;;;;14.79;71.44;97317.22;4917133;29;20071;-72
2022/07/12 04:44:06;;;;;;;7.95;3.10;;;;;;;14.69;71.39;97323.50;4924333;29;20082;-71
2022/07/12 05:03:51;;;;;;;4.40;2.80;;;;;;;14.93;72.48;97322.84;4983569;28;20066;-65
2022/07/12 05:06:52;;;;;;;3.10;2.80;;;;;;;15.29;71.49;97319.00;4961556;28;20058;-70
2022/07/12 05:09:33;;;;;;;3.58;2.92;;;;;;;15.27;68.44;97276.72;4870127;28;20651;-69
2022/07/12 05:16:14;;;;;;;3.15;2.80;;;;;;;16.19;67.10;97311.94;4920033;29;20062;-71
2022/07/12 05:28:01;;;;;;;3.33;3.13;;;;;;;17.26;62.96;97335.69;4972589;28;20065;-64
2022/07/12 05:30:28;;;;;;;3.83;3.53;;;;;;;17.51;60.87;97314.81;4962718;28;20133;-71
2022/07/12 05:33:12;;;;;;;3.20;2.92;;;;;;;17.72;59.62;97311.06;4964430;28;20062;-71
2022/07/12 05:36:28;;;;;;;;;;;;;;;;;;;;;
2022/07/12 05:40:05;;;;;;;4.88;3.28;;;;;;;18.14;58.77;97302.31;4955912;28;20438;-70
2022/07/12 06:26:53;;;;;;;3.55;2.90;;;;;;;21.43;43.56;97278.94;4998346;28;20589;-73
2022/07/12 07:10:20;;;;;;;3.83;3.03;;;;;;;23.05;37.79;97274.91;5000436;28;20100;-65
2022/07/12 07:15:47;;;;;;;3.25;3.05;;;;;;;22.89;36.07;97227.72;4995722;28;20456;-65
2022/07/12 07:18:13;;;;;;;4.47;3.22;;;;;;;23.20;35.69;97247.81;4998176;28;20050;-63
2022/07/12 07:20:40;;;;;;;3.40;3.20;;;;;;;21.78;36.43;97032.78;4998125;28;20053;-63
2022/07/12 07:23:10;;;;;;;4.35;3.17;;;;;;;22.27;36.15;97124.53;5002006;28;20042;-71
2022/07/12 07:25:36;;;;;;;3.55;3.15;;;;;;;23.53;36.52;97277.56;4998827;28;20045;-71
2022/07/12 07:28:03;;;;;;;3.25;3.05;;;;;;;22.66;37.12;97128.31;4998906;28;20061;-64
2022/07/12 07:33:15;;;;;;;4.00;3.75;;;;;;;24.02;35.89;97276.03;5002173;28;20085;-68
2022/07/12 07:35:43;;;;;;;4.72;4.32;;;;;;;23.39;35.86;97142.25;5001258;28;20057;-79
2022/07/12 07:38:10;;;;;;;3.75;3.45;;;;;;;23.84;35.22;97179.56;5001654;28;20049;-62
2022/07/12 07:40:37;;;;;;;3.95;3.63;;;;;;;22.95;34.98;97066.91;4983636;28;20065;-71
2022/07/12 07:43:04;;;;;;;4.00;3.70;;;;;;;23.20;35.90;97140.41;5003884;28;20054;-74
2022/07/12 07:45:31;;;;;;;3.33;3.22;;;;;;;24.46;34.93;97274.16;5001297;28;20429;-64
2022/07/12 13:41:58;;;;;;;5.68;3.80;;;;;;;24.66;34.01;97139.50;4869960;29;20121;-70
2022/07/12 14:06:19;;;;;;;5.28;4.20;;;;;;;24.98;34.52;97135.47;4945184;29;20369;-68
2022/07/12 14:14:04;;;;;;;4.18;3.85;;;;;;;24.79;34.51;97143.06;5021698;28;20140;-71
2022/07/12 14:16:31;;;;;;;4.00;3.70;;;;;;;24.74;34.73;97143.66;5023248;28;20677;-71
2022/07/12 14:19:04;;;;;;;4.80;3.95;;;;;;;24.42;34.71;97095.84;5021446;28;20143;-68
2022/07/12 14:21:31;;;;;;;7.53;6.45;;;;;;;25.17;34.04;97128.66;5020545;28;20089;-68
2022/07/12 14:24:00;;;;;;;5.38;4.88;;;;;;;25.10;34.14;97132.56;5023476;28;20068;-68
2022/07/12 14:26:28;;;;;;;5.20;4.80;;;;;;;25.41;34.00;97140.28;5026843;28;20045;-68
2022/07/12 14:28:55;;;;;;;5.38;4.10;;;;;;;25.21;33.63;97130.09;5021082;28;20144;-69
2022/07/12 14:31:22;;;;;;;5.13;4.50;;;;;;;25.25;33.41;97130.75;5025858;28;20060;-69
2022/07/12 14:33:49;;;;;;;4.30;4.00;;;;;;;24.04;33.82;97018.00;5020613;28;20054;-71
2022/07/12 14:36:16;;;;;;;4.30;4.03;;;;;;;24.94;33.56;97129.94;5026356;28;20053;-69
2022/07/12 14:38:43;;;;;;;8.35;4.50;;;;;;;24.75;34.04;97144.47;5021623;28;20057;-68
2022/07/12 14:41:10;;;;;;;4.35;3.80;;;;;;;24.70;33.49;97131.69;5027701;28;20056;-68
2022/07/12 14:43:37;;;;;;;5.88;4.40;;;;;;;24.92;33.64;97077.81;5019691;28;20045;-68
2022/07/12 14:46:04;;;;;;;5.45;5.05;;;;;;;25.18;32.85;97099.81;5022483;28;20049;-69
2022/07/12 14:48:31;;;;;;;4.68;4.28;;;;;;;23.71;33.30;96904.41;5023831;28;20054;-68
2022/07/12 14:50:58;;;;;;;5.97;4.68;;;;;;;25.71;32.65;97111.09;5024120;28;20436;-68
2022/07/12 14:53:25;;;;;;;5.40;4.95;;;;;;;25.58;32.42;97023.25;5022336;28;20052;-70
2022/07/12 14:55:51;;;;;;;4.30;3.97;;;;;;;25.50;32.72;97090.06;5025550;28;20065;-69
2022/07/12 14:58:18;;;;;;;5.28;4.43;;;;;;;25.59;32.81;97129.84;5022978;28;20045;-68
2022/07/12 15:00:45;;;;;;;4.82;4.53;;;;;;;26.07;31.47;97037.38;5025086;28;20057;-67
2022/07/12 15:03:11;;;;;;;5.57;5.07;;;;;;;28.14;29.81;97124.97;5023497;28;20307;-68
2022/07/12 15:05:40;;;;;;;5.85;5.47;;;;;;;28.11;29.03;97131.66;5024124;28;20058;-68
2022/07/12 15:08:06;;;;;;;5.25;4.85;;;;;;;27.93;29.59;97103.25;5030692;28;20068;-68
2022/07/12 15:10:33;;;;;;;7.13;6.53;;;;;;;28.50;28.80;97111.78;5043525;28;20048;-69
2022/07/12 15:13:00;;;;;;;4.78;4.47;;;;;;;26.88;30.49;97136.00;5042956;28;20053;-71
2022/07/12 15:15:27;;;;;;;5.05;4.57;;;;;;;26.49;31.40;97081.69;5041618;28;20049;-69
2022/07/12 15:17:53;;;;;;;5.22;4.80;;;;;;;27.89;29.53;97013.59;5042748;28;20049;-69
2022/07/12 15:20:21;;;;;;;6.60;5.43;;;;;;;28.99;28.07;97111.94;5032575;28;20128;-69
2022/07/12 15:22:48;;;;;;;6.35;5.40;;;;;;;29.44;27.35;97071.50;5031497;28;20409;-69
2022/07/12 15:25:15;;;;;;;5.15;4.85;;;;;;;30.02;27.28;97099.16;5027617;28;20048;-69
2022/07/12 15:27:42;;;;;;;5.47;5.18;;;;;;;29.73;27.26;97094.31;5029404;28;20061;-70
2022/07/12 15:30:09;;;;;;;5.82;5.32;;;;;;;29.44;27.88;97102.91;5028936;28;20049;-68
2022/07/12 15:32:36;;;;;;;6.45;5.88;;;;;;;29.47;27.83;97093.34;5029954;28;20057;-68
2022/07/12 15:35:05;;;;;;;9.45;6.18;;;;;;;29.83;26.84;97097.84;5026787;28;20049;-70
2022/07/12 15:37:31;;;;;;;8.18;5.55;;;;;;;30.40;26.43;97039.63;5030943;28;20963;-70
2022/07/12 15:39:59;;;;;;;5.75;5.43;;;;;;;31.72;25.43;97102.34;5026462;28;20057;-70
2022/07/12 15:42:28;;;;;;;6.07;5.68;;;;;;;29.54;26.59;97105.13;5031538;28;20077;-69
2022/07/12 15:44:55;;;;;;;7.03;5.63;;;;;;;29.32;27.00;97113.34;5028414;28;20136;-70
2022/07/12 15:47:21;;;;;;;9.27;5.03;;;;;;;27.10;29.42;96986.66;5031091;28;20061;-68
2022/07/12 15:49:49;;;;;;;5.40;5.00;;;;;;;27.24;29.82;97020.09;5027247;28;20057;-69
2022/07/12 15:55:01;;;;;;;6.55;5.40;;;;;;;28.60;27.74;96965.78;5028506;28;20049;-70
2022/07/12 15:57:28;;;;;;;6.03;5.20;;;;;;;28.84;27.93;97088.31;5030962;28;20116;-69
2022/07/12 15:59:55;;;;;;;6.90;6.30;;;;;;;29.44;27.20;97060.06;5026378;28;20126;-68
2022/07/12 16:02:21;;;;;;;5.85;5.43;;;;;;;29.15;28.47;97111.50;5032948;28;20432;-69
2022/07/12 16:04:50;;;;;;;6.85;5.10;;;;;;;27.06;29.22;97079.13;5026467;28;20056;-68
2022/07/12 16:07:17;;;;;;;6.65;4.68;;;;;;;27.37;29.62;97128.03;5032763;28;20432;-68
2022/07/12 16:09:44;;;;;;;5.20;4.90;;;;;;;27.62;29.05;97128.41;5025979;28;20084;-68
2022/07/12 16:12:11;;;;;;;4.97;4.68;;;;;;;28.60;28.05;97121.81;5032137;28;20531;-70
2022/07/12 16:14:38;;;;;;;6.43;5.78;;;;;;;29.08;27.75;97066.22;5025736;28;20431;-69
2022/07/12 16:17:05;;;;;;;5.43;5.13;;;;;;;29.18;26.53;96956.41;5032750;28;20531;-68
2022/07/12 16:19:31;;;;;;;5.90;5.60;;;;;;;30.70;26.17;97085.97;5025370;28;20118;-69
2022/07/12 16:21:58;;;;;;;5.63;5.13;;;;;;;29.72;25.67;97047.03;5032340;28;20086;-69
2022/07/12 16:24:25;;;;;;;5.15;4.95;;;;;;;28.71;26.40;97007.97;5026045;28;20045;-71
2022/07/12 16:26:52;;;;;;;6.03;5.40;;;;;;;29.53;26.71;97122.75;5033011;28;20053;-70
2022/07/12 16:29:19;;;;;;;6.15;5.65;;;;;;;28.29;26.69;96958.97;5026203;28;20057;-70
2022/07/12 16:31:45;;;;;;;7.60;6.95;;;;;;;29.33;26.55;97116.97;5029344;28;20053;-69
2022/07/12 16:34:32;;;;;;;6.03;5.72;;;;;;;29.50;26.44;97126.59;5025572;28;20064;-69
2022/07/12 16:36:59;;;;;;;5.53;5.20;;;;;;;29.33;26.34;97120.63;5031532;28;20045;-70
2022/07/12 16:39:26;;;;;;;6.47;5.88;;;;;;;29.87;25.88;97121.25;5025250;28;20052;-71
2022/07/12 16:41:52;;;;;;;5.40;5.10;;;;;;;29.36;26.31;97133.13;5031773;28;20436;-70
2022/07/12 16:44:19;;;;;;;5.85;5.45;;;;;;;29.76;25.96;97076.19;5025566;28;20058;-69
2022/07/12 16:46:46;;;;;;;6.05;5.43;;;;;;;30.13;25.75;97137.22;5031872;28;20500;-69
2022/07/12 16:49:12;;;;;;;5.72;5.43;;;;;;;29.13;25.97;97034.16;5025816;28;20053;-69
2022/07/12 16:51:39;;;;;;;5.60;5.03;;;;;;;29.36;26.53;97135.97;5028881;28;20450;-70
2022/07/12 16:54:06;;;;;;;6.80;5.82;;;;;;;29.99;25.88;97031.56;5027707;28;20045;-69
2022/07/12 16:56:33;;;;;;;6.47;5.90;;;;;;;29.58;25.64;97007.84;5028419;28;20053;-67
2022/07/12 16:59:02;;;;;;;6.22;5.78;;;;;;;30.40;26.20;97142.56;5021264;28;20057;-69
2022/07/12 17:01:29;;;;;;;5.18;4.97;;;;;;;28.63;27.12;97055.28;5027732;28;20053;-69
2022/07/12 17:03:56;;;;;;;6.80;6.15;;;;;;;28.74;26.90;97075.44;5026486;28;20464;-67
2022/07/12 17:06:25;;;;;;;7.05;6.40;;;;;;;27.95;28.11;96986.00;5030346;28;20485;-68
2022/07/12 17:08:52;;;;;;;5.60;5.10;;;;;;;29.76;26.73;97147.59;5024978;28;20072;-69
2022/07/12 17:11:19;;;;;;;10.48;5.97;;;;;;;28.49;27.83;97167.19;5031991;28;20056;-70
2022/07/12 17:13:46;;;;;;;6.80;5.25;;;;;;;28.99;27.24;97104.16;5025011;28;20058;-68
2022/07/12 17:16:12;;;;;;;5.20;4.95;;;;;;;28.83;27.64;97140.94;5031368;28;20063;-69
2022/07/12 17:18:39;;;;;;;5.63;5.13;;;;;;;27.55;29.08;97151.50;5024972;28;20045;-67
2022/07/12 17:21:07;;;;;;;4.78;4.40;;;;;;;24.25;30.50;96802.84;5027860;28;20068;-70
2022/07/12 17:23:34;;;;;;;4.80;4.47;;;;;;;25.76;30.98;97113.31;5027434;28;20483;-68
2022/07/12 17:26:20;;;;;;;4.95;4.20;;;;;;;25.25;32.01;97164.78;5031108;28;20098;-68
2022/07/12 17:28:47;;;;;;;4.78;4.32;;;;;;;24.45;33.10;97128.94;5022979;28;20057;-68
2022/07/12 17:31:15;;;;;;;7.13;4.55;;;;;;;24.46;33.71;97163.69;5030091;28;20049;-68
2022/07/12 17:33:47;;;;;;;4.13;3.83;;;;;;;23.76;33.96;97107.47;5025209;28;20155;-69
2022/07/12 17:36:14;;;;;;;8.60;4.80;;;;;;;23.97;34.46;97171.88;5031120;28;20133;-68
2022/07/12 17:38:41;;;;;;;6.30;5.15;;;;;;;23.67;35.16;97180.94;5022695;28;20127;-67
2022/07/12 17:41:08;;;;;;;5.15;3.90;;;;;;;23.37;35.12;97178.66;5031096;28;20056;-68
2022/07/12 17:43:35;;;;;;;5.20;3.90;;;;;;;23.18;35.36;97188.13;5022361;28;20085;-67
2022/07/12 17:46:02;;;;;;;5.22;4.47;;;;;;;23.11;35.88;97182.69;5007514;28;20054;-67
2022/07/12 17:48:31;;;;;;;9.50;6.15;;;;;;;22.74;36.74;97208.78;5023385;28;20057;-68
2022/07/12 17:51:05;;;;;;;8.35;5.10;;;;;;;22.55;37.71;97206.91;5028011;28;20049;-69
2022/07/12 17:53:31;;;;;;;8.30;5.00;;;;;;;21.52;37.17;97050.78;5025127;28;20053;-68
2022/07/12 17:56:02;;;;;;;14.20;8.02;;;;;;;22.44;38.05;97196.69;5025997;28;20170;-68
2022/07/12 17:58:41;;;;;;;11.73;6.47;;;;;;;22.46;38.30;97188.53;5027059;28;20055;-69
2022/07/12 18:01:12;;;;;;;6.82;4.32;;;;;;;21.68;38.18;97093.06;5030787;28;20045;-67
2022/07/12 18:03:43;;;;;;;6.30;4.30;;;;;;;22.18;38.17;97171.56;5024200;28;20608;-68
2022/07/12 18:06:11;;;;;;;4.75;4.10;;;;;;;19.70;38.98;96821.53;5025915;28;20053;-68
2022/07/12 18:08:41;;;;;;;5.88;3.85;;;;;;;21.96;40.26;97205.19;5025270;28;20111;-68
2022/07/12 18:18:00;;;;;;;8.02;4.68;;;;;;;21.37;42.02;97224.31;5030594;28;20053;-67
2022/07/12 18:19:40;;;;;;;7.18;4.00;;;;;;;21.28;42.23;97220.50;5024439;28;20049;-67
2022/07/12 18:22:11;;;;;;;8.93;4.10;;;;;;;21.08;42.36;97220.53;5026889;28;20053;-69
2022/07/12 18:24:49;;;;;;;3.72;3.40;;;;;;;19.90;42.67;97064.09;5022751;28;20061;-67
2022/07/12 18:28:19;;;;;;;;;;;;;;;;;;;;;
2022/07/12 18:35:18;;;;;;;;;;;;;;;;;;;;;
2022/07/12 18:38:14;;;;;;;5.55;3.35;;;;;;;20.21;44.51;97243.53;5015944;28;20053;-69
2022/07/12 18:52:56;;;;;;;4.10;3.70;;;;;;;19.67;46.71;97269.28;4879792;29;20262;-68
2022/07/12 18:59:10;;;;;;;4.40;3.20;;;;;;;19.34;47.76;97263.34;4866805;29;20069;-69
2022/07/12 19:01:40;;;;;;;3.60;3.30;;;;;;;19.23;48.47;97268.28;4880627;29;20265;-66
2022/07/12 19:04:07;;;;;;;6.75;3.20;;;;;;;19.15;48.71;97282.84;4886337;29;20084;-66
2022/07/12 19:06:37;;;;;;;6.68;3.10;;;;;;;19.07;48.85;97279.31;4983037;28;20050;-68
2022/07/12 19:09:04;;;;;;;5.38;3.15;;;;;;;18.98;49.45;97284.66;5026929;28;20061;-67
2022/07/12 19:11:30;;;;;;;3.88;2.83;;;;;;;18.22;50.16;97186.06;5034236;28;20057;-68
2022/07/12 19:13:57;;;;;;;3.80;3.50;;;;;;;18.85;50.00;97275.19;5026061;28;20049;-69
2022/07/12 19:16:24;;;;;;;6.88;4.00;;;;;;;18.63;50.47;97290.66;5034104;28;20159;-67
2022/07/12 19:18:51;;;;;;;3.78;3.33;;;;;;;18.44;51.48;97299.69;5027319;28;20053;-69
2022/07/12 19:21:18;;;;;;;5.30;2.95;;;;;;;17.67;51.71;97180.59;5031975;28;20056;-70
2022/07/12 19:23:45;;;;;;;4.28;3.50;;;;;;;17.97;51.84;97231.16;5027127;28;20045;-68
2022/07/12 19:26:11;;;;;;;3.10;2.80;;;;;;;18.26;51.63;97292.63;5033199;28;20056;-68
2022/07/12 19:28:38;;;;;;;3.30;3.03;;;;;;;18.16;52.02;97285.91;5026871;28;20054;-68
2022/07/12 19:31:05;;;;;;;3.33;3.05;;;;;;;18.08;52.54;97281.56;5033040;28;20513;-69
2022/07/12 19:33:32;;;;;;;3.90;3.25;;;;;;;17.70;52.60;97249.03;5027263;28;20087;-67
2022/07/12 19:35:59;;;;;;;3.42;3.20;;;;;;;17.52;52.52;97231.53;5031439;28;20049;-68
2022/07/12 19:38:26;;;;;;;5.10;3.47;;;;;;;17.49;53.00;97229.56;5027100;28;20053;-68
2022/07/12 19:40:53;;;;;;;3.90;3.13;;;;;;;17.64;54.37;97289.91;5029294;28;20061;-66
2022/07/12 19:43:20;;;;;;;3.53;3.10;;;;;;;17.53;55.36;97283.56;5029881;28;20049;-66
2022/07/12 19:45:49;;;;;;;5.72;3.35;;;;;;;17.46;56.13;97286.41;5028853;28;20495;-69
2022/07/12 19:48:16;;;;;;;3.33;3.00;;;;;;;17.32;56.33;97273.25;5024636;28;20571;-70
2022/07/12 19:50:43;;;;;;;8.18;2.95;;;;;;;17.33;56.76;97279.63;5029319;28;20550;-67
2022/07/12 19:53:10;;;;;;;5.95;3.13;;;;;;;17.23;56.29;97286.13;5029050;28;20516;-68
2022/07/12 19:55:37;;;;;;;3.10;2.78;;;;;;;17.24;56.35;97282.09;5029072;28;20052;-70
2022/07/12 19:58:04;;;;;;;8.90;3.65;;;;;;;17.14;56.17;97288.53;5029105;28;20512;-69
2022/07/12 20:00:31;;;;;;;8.23;3.28;;;;;;;17.15;56.17;97295.75;5029421;28;20049;-67
2022/07/12 20:02:58;;;;;;;5.30;3.20;;;;;;;16.58;55.79;97195.25;5029028;28;20053;-67
2022/07/12 20:05:28;;;;;;;6.30;3.03;;;;;;;16.84;55.48;97243.50;5028282;28;20042;-67
2022/07/12 20:07:56;;;;;;;5.05;3.08;;;;;;;17.11;55.55;97303.34;5027283;28;20068;-66
2022/07/12 20:10:23;;;;;;;5.00;2.92;;;;;;;16.68;55.06;97226.41;5027909;28;20419;-66
2022/07/12 20:12:51;;;;;;;3.92;3.33;;;;;;;16.90;54.89;97253.09;5030496;28;20115;-70
2022/07/12 20:15:19;;;;;;;3.47;3.17;;;;;;;17.09;54.79;97292.56;5026524;28;20447;-69
2022/07/12 20:17:47;;;;;;;5.72;3.85;;;;;;;17.06;55.07;97304.56;5023415;28;20053;-67
2022/07/12 20:20:14;;;;;;;4.15;3.25;;;;;;;16.24;55.22;97171.78;5026844;28;20053;-67
2022/07/12 20:22:41;;;;;;;2.80;2.60;;;;;;;16.88;55.68;97343.03;5028124;28;20444;-67
2022/07/12 20:25:08;;;;;;;2.90;2.70;;;;;;;16.76;56.16;97278.28;5028256;28;20046;-67
2022/07/12 20:27:35;;;;;;;5.63;2.90;;;;;;;16.60;56.76;97287.13;5029356;28;20049;-67
2022/07/12 20:30:03;;;;;;;5.40;3.40;;;;;;;16.05;57.12;97216.94;5026216;28;20553;-67
2022/07/12 20:32:30;;;;;;;4.72;2.95;;;;;;;14.74;56.83;97008.03;5028488;28;20053;-69
2022/07/12 20:34:56;;;;;;;3.60;2.97;;;;;;;16.50;57.52;97313.16;5026499;28;20049;-69
2022/07/12 20:37:23;;;;;;;5.90;3.10;;;;;;;16.34;58.30;97293.94;5025265;28;20057;-69
2022/07/12 20:39:50;;;;;;;5.70;2.70;;;;;;;16.25;58.44;97315.94;5024882;28;20048;-69
2022/07/12 20:42:17;;;;;;;3.95;2.97;;;;;;;16.34;58.01;97301.56;5030788;28;20129;-68
2022/07/12 20:44:43;;;;;;;5.53;2.80;;;;;;;16.39;57.77;97307.53;5025955;28;20049;-67
2022/07/12 20:47:10;;;;;;;3.17;2.88;;;;;;;15.36;57.91;97125.59;5030502;28;20045;-66
2022/07/12 20:49:38;;;;;;;3.45;2.90;;;;;;;16.35;57.66;97292.75;5025740;28;20049;-67
2022/07/12 20:52:05;;;;;;;3.65;2.85;;;;;;;16.31;57.97;97291.97;5030851;28;20056;-67
2022/07/12 20:54:32;;;;;;;3.78;3.20;;;;;;;15.92;58.03;97228.91;5025373;28;20060;-68
2022/07/12 20:56:58;;;;;;;7.40;3.00;;;;;;;16.22;57.87;97302.75;5031644;28;20060;-66
2022/07/12 20:59:25;;;;;;;6.75;2.80;;;;;;;16.07;57.75;97253.69;5025294;28;20053;-69
2022/07/12 21:01:52;;;;;;;2.88;2.65;;;;;;;16.26;57.37;97289.59;5031163;28;20140;-69
2022/07/12 21:04:20;;;;;;;3.10;2.75;;;;;;;16.34;57.01;97293.16;5023736;28;20045;-67
2022/07/12 21:06:47;;;;;;;3.97;3.10;;;;;;;15.58;57.17;97175.50;5031331;28;20057;-66
2022/07/12 21:09:14;;;;;;;4.20;3.00;;;;;;;16.33;57.22;97294.34;5024626;28;20539;-67
2022/07/12 21:11:41;;;;;;;3.55;2.72;;;;;;;15.99;57.41;97257.69;5031414;28;20056;-67
2022/07/12 21:14:09;;;;;;;3.88;2.80;;;;;;;16.27;57.30;97302.38;5024519;28;20083;-69
2022/07/12 21:16:38;;;;;;;4.05;2.80;;;;;;;15.93;57.02;97242.50;5029565;28;20053;-67
2022/07/12 21:19:05;;;;;;;7.22;3.30;;;;;;;16.22;57.48;97299.16;5024005;28;20148;-66
2022/07/12 21:21:32;;;;;;;2.95;2.45;;;;;;;15.61;57.91;97204.59;5031722;28;20095;-67
2022/07/12 21:23:59;;;;;;;6.93;3.20;;;;;;;16.19;57.29;97284.00;5026130;28;20232;-66
2022/07/12 21:26:28;;;;;;;9.32;3.00;;;;;;;15.16;57.88;97108.47;5031641;28;20045;-66
2022/07/12 21:28:56;;;;;;;3.25;2.95;;;;;;;15.91;57.21;97233.72;5024669;28;20152;-66
2022/07/12 21:31:25;;;;;;;3.40;2.80;;;;;;;15.44;57.23;97185.88;5031901;28;20056;-66
2022/07/12 21:33:54;;;;;;;4.50;3.08;;;;;;;16.06;58.05;97280.00;5024614;28;20133;-66
2022/07/12 21:36:21;;;;;;;3.42;2.78;;;;;;;15.85;59.02;97285.63;5031031;28;20045;-67
2022/07/12 21:38:47;;;;;;;3.30;2.45;;;;;;;15.90;58.63;97284.41;5024431;28;20459;-66
2022/07/12 21:41:14;;;;;;;6.03;3.63;;;;;;;15.66;59.21;97288.81;5031371;28;20538;-66
2022/07/12 21:43:41;;;;;;;3.83;2.83;;;;;;;15.12;60.89;97253.56;5022924;28;20049;-68
2022/07/12 21:46:11;;;;;;;2.92;2.53;;;;;;;15.11;60.62;97240.03;5027847;28;20629;-65
2022/07/12 21:48:39;;;;;;;2.92;2.70;;;;;;;15.52;60.97;97293.56;5021724;28;20444;-66
2022/07/12 21:51:06;;;;;;;4.10;2.60;;;;;;;15.55;61.23;97282.41;5022254;28;20057;-65
2022/07/12 21:53:35;;;;;;;5.57;2.83;;;;;;;14.68;60.14;97137.91;5025227;28;20136;-65
2022/07/12 21:56:02;;;;;;;3.33;2.90;;;;;;;15.08;60.23;97179.41;5026022;28;20111;-66
2022/07/12 21:58:29;;;;;;;3.45;2.53;;;;;;;15.80;59.82;97272.06;5027218;28;20323;-66
2022/07/12 22:00:56;;;;;;;3.50;3.15;;;;;;;15.84;59.32;97278.41;5027356;28;20057;-67
2022/07/12 22:03:23;;;;;;;4.65;2.58;;;;;;;15.84;58.75;97300.78;5027140;28;20056;-65
2022/07/12 22:05:49;;;;;;;4.43;3.08;;;;;;;15.83;58.18;97285.22;5029149;28;20061;-67
2022/07/12 22:08:16;;;;;;;3.80;2.63;;;;;;;15.05;59.00;97174.63;5026146;28;20057;-67
2022/07/12 22:10:43;;;;;;;4.05;3.33;;;;;;;15.57;59.45;97280.00;5027320;28;20140;-68
2022/07/12 22:13:10;;;;;;;7.28;3.05;;;;;;;15.47;59.42;97247.28;5027667;28;20060;-65
2022/07/12 22:15:37;;;;;;;4.45;2.90;;;;;;;15.32;59.12;97237.25;5025883;28;20077;-65
2022/07/12 22:18:03;;;;;;;3.72;2.53;;;;;;;15.56;59.82;97278.41;5028597;28;20049;-67
2022/07/12 22:20:30;;;;;;;5.40;2.80;;;;;;;15.58;59.46;97269.63;5027366;28;20144;-67
2022/07/12 22:22:58;;;;;;;3.67;2.72;;;;;;;15.31;59.33;97238.47;5026961;28;20538;-64
2022/07/12 22:25:25;;;;;;;3.35;2.65;;;;;;;15.48;60.80;97287.97;5020020;28;20053;-64
2022/07/12 22:27:52;;;;;;;4.88;2.83;;;;;;;15.21;60.36;97233.66;5027581;28;20046;-67